sensor_id;sensor_type;location;lat;lon;timestamp;P1;durP1;ratioP1;P2;durP2;ratioP2
22417;SDS011;11376;50.932;4.442;2023-05-15T00:00:08;144.00;;;60.03;;
22417;SDS011;11376;50.932;4.442;2023-05-15T00:02:37;143.67;;;61.27;;
22417;SDS011;11376;50.932;4.442;2023-05-15T00:05:04;145.83;;;62.70;;
22417;SDS011;11376;50.932;4.442;2023-05-15T00:07:30;144.70;;;59.27;;
22417;SDS011;11376;50.932;4.442;2023-05-15T00:09:56;139.07;;;59.37;;
22417;SDS011;11376;50.932;4.442;2023-05-15T00:12:22;134.40;;;59.17;;
22417;SDS011;11376;50.932;4.442;2023-05-15T00:14:47;131.53;;;55.27;;
22417;SDS011;11376;50.932;4.442;2023-05-15T00:17:13;122.87;;;54.67;;
22417;SDS011;11376;50.932;4.442;2023-05-15T00:19:39;126.00;;;53.67;;
22417;SDS011;11376;50.932;4.442;2023-05-15T00:22:05;117.63;;;53.27;;
22417;SDS011;11376;50.932;4.442;2023-05-15T00:24:31;127.27;;;54.33;;
22417;SDS011;11376;50.932;4.442;2023-05-15T00:26:58;126.17;;;55.40;;
22417;SDS011;11376;50.932;4.442;2023-05-15T00:29:24;122.40;;;54.67;;
22417;SDS011;11376;50.932;4.442;2023-05-15T00:31:50;118.40;;;52.63;;
22417;SDS011;11376;50.932;4.442;2023-05-15T00:34:16;128.63;;;55.93;;
22417;SDS011;11376;50.932;4.442;2023-05-15T00:36:42;128.63;;;55.37;;
22417;SDS011;11376;50.932;4.442;2023-05-15T00:39:08;120.80;;;55.63;;
22417;SDS011;11376;50.932;4.442;2023-05-15T00:41:34;127.93;;;59.63;;
22417;SDS011;11376;50.932;4.442;2023-05-15T00:44:01;131.33;;;56.07;;
22417;SDS011;11376;50.932;4.442;2023-05-15T00:46:27;128.40;;;54.67;;
22417;SDS011;11376;50.932;4.442;2023-05-15T00:48:56;123.27;;;54.47;;
22417;SDS011;11376;50.932;4.442;2023-05-15T00:51:22;127.30;;;55.20;;
22417;SDS011;11376;50.932;4.442;2023-05-15T00:53:50;121.43;;;55.50;;
22417;SDS011;11376;50.932;4.442;2023-05-15T00:56:20;117.40;;;49.67;;
22417;SDS011;11376;50.932;4.442;2023-05-15T00:58:47;117.03;;;52.33;;
22417;SDS011;11376;50.932;4.442;2023-05-15T01:01:15;107.30;;;48.70;;
22417;SDS011;11376;50.932;4.442;2023-05-15T01:03:44;102.03;;;47.77;;
22417;SDS011;11376;50.932;4.442;2023-05-15T01:06:10;105.03;;;48.13;;
22417;SDS011;11376;50.932;4.442;2023-05-15T01:08:44;108.93;;;48.43;;
22417;SDS011;11376;50.932;4.442;2023-05-15T01:11:11;104.37;;;50.07;;
22417;SDS011;11376;50.932;4.442;2023-05-15T01:13:38;101.67;;;48.73;;
22417;SDS011;11376;50.932;4.442;2023-05-15T01:16:05;107.77;;;49.93;;
22417;SDS011;11376;50.932;4.442;2023-05-15T01:18:32;99.03;;;47.27;;
22417;SDS011;11376;50.932;4.442;2023-05-15T01:31:41;122.50;;;53.77;;
22417;SDS011;11376;50.932;4.442;2023-05-15T01:34:08;101.13;;;48.83;;
22417;SDS011;11376;50.932;4.442;2023-05-15T01:36:42;94.67;;;47.90;;
22417;SDS011;11376;50.932;4.442;2023-05-15T01:39:12;96.63;;;46.67;;
22417;SDS011;11376;50.932;4.442;2023-05-15T01:46:49;85.90;;;47.97;;
22417;SDS011;11376;50.932;4.442;2023-05-15T01:49:18;91.93;;;44.70;;
22417;SDS011;11376;50.932;4.442;2023-05-15T01:51:53;96.80;;;49.23;;
22417;SDS011;11376;50.932;4.442;2023-05-15T01:54:23;99.83;;;49.80;;
22417;SDS011;11376;50.932;4.442;2023-05-15T01:56:50;106.53;;;51.70;;
22417;SDS011;11376;50.932;4.442;2023-05-15T01:59:16;106.33;;;51.83;;
22417;SDS011;11376;50.932;4.442;2023-05-15T02:01:45;118.03;;;53.67;;
22417;SDS011;11376;50.932;4.442;2023-05-15T02:04:11;117.20;;;54.87;;
22417;SDS011;11376;50.932;4.442;2023-05-15T02:06:38;111.87;;;52.57;;
22417;SDS011;11376;50.932;4.442;2023-05-15T02:09:05;108.77;;;52.40;;
22417;SDS011;11376;50.932;4.442;2023-05-15T02:11:31;130.70;;;60.53;;
22417;SDS011;11376;50.932;4.442;2023-05-15T02:13:58;121.27;;;56.50;;
22417;SDS011;11376;50.932;4.442;2023-05-15T02:16:25;160.13;;;73.33;;
22417;SDS011;11376;50.932;4.442;2023-05-15T02:18:51;166.17;;;69.73;;
22417;SDS011;11376;50.932;4.442;2023-05-15T02:21:16;166.13;;;74.63;;
22417;SDS011;11376;50.932;4.442;2023-05-15T02:23:42;164.80;;;73.43;;
22417;SDS011;11376;50.932;4.442;2023-05-15T02:31:17;194.30;;;80.77;;
22417;SDS011;11376;50.932;4.442;2023-05-15T02:33:55;221.23;;;89.60;;
22417;SDS011;11376;50.932;4.442;2023-05-15T02:36:31;233.37;;;88.97;;
22417;SDS011;11376;50.932;4.442;2023-05-15T02:39:00;232.97;;;92.30;;
22417;SDS011;11376;50.932;4.442;2023-05-15T02:41:26;251.50;;;94.90;;
22417;SDS011;11376;50.932;4.442;2023-05-15T02:43:53;247.33;;;99.10;;
22417;SDS011;11376;50.932;4.442;2023-05-15T02:46:20;243.33;;;93.70;;
22417;SDS011;11376;50.932;4.442;2023-05-15T02:48:48;262.70;;;100.23;;
22417;SDS011;11376;50.932;4.442;2023-05-15T02:51:15;252.77;;;97.03;;
22417;SDS011;11376;50.932;4.442;2023-05-15T02:53:41;257.20;;;97.97;;
22417;SDS011;11376;50.932;4.442;2023-05-15T02:56:07;244.47;;;95.07;;
22417;SDS011;11376;50.932;4.442;2023-05-15T02:58:33;234.87;;;95.27;;
22417;SDS011;11376;50.932;4.442;2023-05-15T03:00:59;232.13;;;90.93;;
22417;SDS011;11376;50.932;4.442;2023-05-15T03:03:25;207.63;;;88.27;;
22417;SDS011;11376;50.932;4.442;2023-05-15T03:05:51;205.17;;;80.87;;
22417;SDS011;11376;50.932;4.442;2023-05-15T03:08:18;195.80;;;81.70;;
22417;SDS011;11376;50.932;4.442;2023-05-15T03:10:43;196.40;;;80.47;;
22417;SDS011;11376;50.932;4.442;2023-05-15T03:13:09;174.83;;;73.53;;
22417;SDS011;11376;50.932;4.442;2023-05-15T03:15:35;152.27;;;65.77;;
22417;SDS011;11376;50.932;4.442;2023-05-15T03:18:01;150.10;;;68.33;;
22417;SDS011;11376;50.932;4.442;2023-05-15T03:20:27;163.07;;;69.57;;
22417;SDS011;11376;50.932;4.442;2023-05-15T03:22:53;146.73;;;62.70;;
22417;SDS011;11376;50.932;4.442;2023-05-15T03:25:18;149.73;;;64.33;;
22417;SDS011;11376;50.932;4.442;2023-05-15T03:27:45;165.47;;;69.47;;
22417;SDS011;11376;50.932;4.442;2023-05-15T03:30:10;179.60;;;73.30;;
22417;SDS011;11376;50.932;4.442;2023-05-15T03:32:36;166.50;;;64.40;;
22417;SDS011;11376;50.932;4.442;2023-05-15T03:35:02;192.13;;;79.93;;
22417;SDS011;11376;50.932;4.442;2023-05-15T03:37:28;195.93;;;84.00;;
22417;SDS011;11376;50.932;4.442;2023-05-15T03:39:54;205.23;;;82.57;;
22417;SDS011;11376;50.932;4.442;2023-05-15T03:42:20;207.43;;;82.73;;
22417;SDS011;11376;50.932;4.442;2023-05-15T03:44:50;212.63;;;76.87;;
22417;SDS011;11376;50.932;4.442;2023-05-15T03:47:16;206.50;;;77.20;;
22417;SDS011;11376;50.932;4.442;2023-05-15T03:49:42;234.63;;;83.30;;
22417;SDS011;11376;50.932;4.442;2023-05-15T03:52:08;238.43;;;86.40;;
22417;SDS011;11376;50.932;4.442;2023-05-15T03:54:34;262.93;;;89.30;;
22417;SDS011;11376;50.932;4.442;2023-05-15T03:57:00;231.70;;;83.47;;
22417;SDS011;11376;50.932;4.442;2023-05-15T03:59:28;197.00;;;71.10;;
22417;SDS011;11376;50.932;4.442;2023-05-15T04:01:54;213.73;;;76.87;;
22417;SDS011;11376;50.932;4.442;2023-05-15T04:04:19;204.27;;;76.23;;
22417;SDS011;11376;50.932;4.442;2023-05-15T04:06:45;240.63;;;82.63;;
22417;SDS011;11376;50.932;4.442;2023-05-15T04:09:11;284.67;;;95.97;;
22417;SDS011;11376;50.932;4.442;2023-05-15T04:11:36;281.63;;;95.97;;
22417;SDS011;11376;50.932;4.442;2023-05-15T04:14:02;317.63;;;105.73;;
22417;SDS011;11376;50.932;4.442;2023-05-15T04:16:28;346.40;;;114.67;;
22417;SDS011;11376;50.932;4.442;2023-05-15T04:18:53;344.27;;;113.23;;
22417;SDS011;11376;50.932;4.442;2023-05-15T04:21:19;359.50;;;120.50;;
22417;SDS011;11376;50.932;4.442;2023-05-15T04:23:45;366.60;;;122.20;;
22417;SDS011;11376;50.932;4.442;2023-05-15T04:26:10;341.83;;;117.23;;
22417;SDS011;11376;50.932;4.442;2023-05-15T04:28:36;309.53;;;105.07;;
22417;SDS011;11376;50.932;4.442;2023-05-15T04:31:02;312.33;;;110.47;;
22417;SDS011;11376;50.932;4.442;2023-05-15T04:33:28;279.43;;;98.67;;
22417;SDS011;11376;50.932;4.442;2023-05-15T04:35:53;248.83;;;91.33;;
22417;SDS011;11376;50.932;4.442;2023-05-15T04:38:19;239.57;;;87.63;;
22417;SDS011;11376;50.932;4.442;2023-05-15T04:40:45;213.10;;;80.40;;
22417;SDS011;11376;50.932;4.442;2023-05-15T04:43:11;212.30;;;84.90;;
22417;SDS011;11376;50.932;4.442;2023-05-15T04:45:36;207.77;;;80.47;;
22417;SDS011;11376;50.932;4.442;2023-05-15T04:48:02;198.67;;;80.57;;
22417;SDS011;11376;50.932;4.442;2023-05-15T04:50:28;183.50;;;74.00;;
22417;SDS011;11376;50.932;4.442;2023-05-15T04:52:54;162.50;;;68.40;;
22417;SDS011;11376;50.932;4.442;2023-05-15T04:55:20;117.70;;;54.50;;
22417;SDS011;11376;50.932;4.442;2023-05-15T04:57:46;113.60;;;47.70;;
22417;SDS011;11376;50.932;4.442;2023-05-15T05:00:12;132.63;;;53.83;;
22417;SDS011;11376;50.932;4.442;2023-05-15T05:02:38;125.37;;;49.10;;
22417;SDS011;11376;50.932;4.442;2023-05-15T05:05:05;115.87;;;51.50;;
22417;SDS011;11376;50.932;4.442;2023-05-15T05:07:32;115.47;;;52.03;;
22417;SDS011;11376;50.932;4.442;2023-05-15T05:09:58;121.93;;;57.80;;
22417;SDS011;11376;50.932;4.442;2023-05-15T05:12:24;113.80;;;47.73;;
22417;SDS011;11376;50.932;4.442;2023-05-15T05:14:50;129.07;;;59.67;;
22417;SDS011;11376;50.932;4.442;2023-05-15T05:17:15;140.13;;;58.70;;
22417;SDS011;11376;50.932;4.442;2023-05-15T05:19:41;141.27;;;60.00;;
22417;SDS011;11376;50.932;4.442;2023-05-15T05:22:07;129.37;;;57.07;;
22417;SDS011;11376;50.932;4.442;2023-05-15T05:24:33;137.60;;;58.50;;
22417;SDS011;11376;50.932;4.442;2023-05-15T05:27:02;147.00;;;61.40;;
22417;SDS011;11376;50.932;4.442;2023-05-15T05:29:29;163.80;;;65.37;;
22417;SDS011;11376;50.932;4.442;2023-05-15T05:31:55;163.73;;;64.57;;
22417;SDS011;11376;50.932;4.442;2023-05-15T05:34:21;173.87;;;68.83;;
22417;SDS011;11376;50.932;4.442;2023-05-15T05:36:47;171.67;;;62.47;;
22417;SDS011;11376;50.932;4.442;2023-05-15T05:39:14;169.50;;;67.97;;
22417;SDS011;11376;50.932;4.442;2023-05-15T05:41:43;179.67;;;70.83;;
22417;SDS011;11376;50.932;4.442;2023-05-15T05:44:09;184.17;;;69.23;;
22417;SDS011;11376;50.932;4.442;2023-05-15T05:46:35;188.17;;;69.17;;
22417;SDS011;11376;50.932;4.442;2023-05-15T05:49:01;202.60;;;77.10;;
22417;SDS011;11376;50.932;4.442;2023-05-15T05:51:27;193.27;;;69.80;;
22417;SDS011;11376;50.932;4.442;2023-05-15T05:53:53;182.17;;;66.73;;
22417;SDS011;11376;50.932;4.442;2023-05-15T05:56:19;189.30;;;66.53;;
22417;SDS011;11376;50.932;4.442;2023-05-15T05:58:45;208.90;;;75.90;;
22417;SDS011;11376;50.932;4.442;2023-05-15T06:01:11;207.23;;;68.60;;
22417;SDS011;11376;50.932;4.442;2023-05-15T06:03:37;167.40;;;59.03;;
22417;SDS011;11376;50.932;4.442;2023-05-15T06:06:03;170.13;;;59.87;;
22417;SDS011;11376;50.932;4.442;2023-05-15T06:08:29;166.17;;;59.27;;
22417;SDS011;11376;50.932;4.442;2023-05-15T06:10:55;157.53;;;58.10;;
22417;SDS011;11376;50.932;4.442;2023-05-15T06:13:21;168.80;;;61.03;;
22417;SDS011;11376;50.932;4.442;2023-05-15T06:15:47;172.67;;;63.47;;
22417;SDS011;11376;50.932;4.442;2023-05-15T06:18:13;159.80;;;55.73;;
22417;SDS011;11376;50.932;4.442;2023-05-15T06:20:39;151.50;;;56.13;;
22417;SDS011;11376;50.932;4.442;2023-05-15T06:23:06;144.93;;;54.83;;
22417;SDS011;11376;50.932;4.442;2023-05-15T06:25:32;144.37;;;55.73;;
22417;SDS011;11376;50.932;4.442;2023-05-15T06:27:58;134.97;;;52.97;;
22417;SDS011;11376;50.932;4.442;2023-05-15T06:30:25;126.53;;;51.50;;
22417;SDS011;11376;50.932;4.442;2023-05-15T06:32:51;123.83;;;51.30;;
22417;SDS011;11376;50.932;4.442;2023-05-15T06:35:17;133.37;;;53.50;;
22417;SDS011;11376;50.932;4.442;2023-05-15T06:37:43;118.43;;;50.30;;
22417;SDS011;11376;50.932;4.442;2023-05-15T06:40:09;109.87;;;48.23;;
22417;SDS011;11376;50.932;4.442;2023-05-15T06:42:35;114.13;;;47.67;;
22417;SDS011;11376;50.932;4.442;2023-05-15T06:45:00;110.40;;;48.13;;
22417;SDS011;11376;50.932;4.442;2023-05-15T06:47:26;107.90;;;47.73;;
22417;SDS011;11376;50.932;4.442;2023-05-15T06:49:52;106.67;;;46.53;;
22417;SDS011;11376;50.932;4.442;2023-05-15T06:52:19;97.27;;;46.53;;
22417;SDS011;11376;50.932;4.442;2023-05-15T06:54:45;93.70;;;44.00;;
22417;SDS011;11376;50.932;4.442;2023-05-15T06:57:11;89.30;;;43.80;;
22417;SDS011;11376;50.932;4.442;2023-05-15T06:59:36;91.23;;;43.00;;
22417;SDS011;11376;50.932;4.442;2023-05-15T07:02:02;82.30;;;41.10;;
22417;SDS011;11376;50.932;4.442;2023-05-15T07:04:29;78.73;;;40.83;;
22417;SDS011;11376;50.932;4.442;2023-05-15T07:06:57;79.27;;;40.20;;
22417;SDS011;11376;50.932;4.442;2023-05-15T07:09:23;79.83;;;42.33;;
22417;SDS011;11376;50.932;4.442;2023-05-15T07:11:49;75.73;;;40.63;;
22417;SDS011;11376;50.932;4.442;2023-05-15T07:14:15;78.60;;;40.27;;
22417;SDS011;11376;50.932;4.442;2023-05-15T07:16:40;77.20;;;41.33;;
22417;SDS011;11376;50.932;4.442;2023-05-15T07:19:09;74.07;;;40.30;;
22417;SDS011;11376;50.932;4.442;2023-05-15T07:21:35;78.47;;;40.73;;
22417;SDS011;11376;50.932;4.442;2023-05-15T07:24:03;75.00;;;42.53;;
22417;SDS011;11376;50.932;4.442;2023-05-15T07:26:32;71.80;;;39.80;;
22417;SDS011;11376;50.932;4.442;2023-05-15T07:28:58;72.27;;;39.17;;
22417;SDS011;11376;50.932;4.442;2023-05-15T07:31:24;67.50;;;37.13;;
22417;SDS011;11376;50.932;4.442;2023-05-15T07:33:49;66.87;;;39.37;;
22417;SDS011;11376;50.932;4.442;2023-05-15T07:36:15;67.10;;;38.67;;
22417;SDS011;11376;50.932;4.442;2023-05-15T07:38:41;68.03;;;37.33;;
22417;SDS011;11376;50.932;4.442;2023-05-15T07:41:06;63.80;;;36.40;;
22417;SDS011;11376;50.932;4.442;2023-05-15T07:43:32;59.60;;;36.27;;
22417;SDS011;11376;50.932;4.442;2023-05-15T07:45:58;57.57;;;34.70;;
22417;SDS011;11376;50.932;4.442;2023-05-15T07:48:24;60.30;;;34.63;;
22417;SDS011;11376;50.932;4.442;2023-05-15T07:50:50;52.27;;;32.67;;
22417;SDS011;11376;50.932;4.442;2023-05-15T07:53:16;54.40;;;33.33;;
22417;SDS011;11376;50.932;4.442;2023-05-15T07:55:42;55.70;;;33.27;;
22417;SDS011;11376;50.932;4.442;2023-05-15T07:58:08;53.42;;;32.40;;
22417;SDS011;11376;50.932;4.442;2023-05-15T08:00:34;54.38;;;32.65;;
22417;SDS011;11376;50.932;4.442;2023-05-15T08:03:00;56.07;;;33.03;;
22417;SDS011;11376;50.932;4.442;2023-05-15T08:05:26;51.57;;;31.20;;
22417;SDS011;11376;50.932;4.442;2023-05-15T08:07:52;56.87;;;35.00;;
22417;SDS011;11376;50.932;4.442;2023-05-15T08:10:18;59.53;;;35.77;;
22417;SDS011;11376;50.932;4.442;2023-05-15T08:12:44;54.27;;;32.07;;
22417;SDS011;11376;50.932;4.442;2023-05-15T08:15:11;59.07;;;33.27;;
22417;SDS011;11376;50.932;4.442;2023-05-15T08:17:37;57.53;;;31.97;;
22417;SDS011;11376;50.932;4.442;2023-05-15T08:20:03;52.43;;;30.97;;
22417;SDS011;11376;50.932;4.442;2023-05-15T08:22:29;53.80;;;31.27;;
22417;SDS011;11376;50.932;4.442;2023-05-15T08:24:55;50.87;;;31.33;;
22417;SDS011;11376;50.932;4.442;2023-05-15T08:27:22;53.40;;;32.17;;
22417;SDS011;11376;50.932;4.442;2023-05-15T08:29:47;59.38;;;34.95;;
22417;SDS011;11376;50.932;4.442;2023-05-15T08:32:13;59.23;;;33.70;;
22417;SDS011;11376;50.932;4.442;2023-05-15T08:34:39;60.10;;;35.23;;
22417;SDS011;11376;50.932;4.442;2023-05-15T08:37:05;65.03;;;36.63;;
22417;SDS011;11376;50.932;4.442;2023-05-15T08:39:31;57.67;;;33.07;;
22417;SDS011;11376;50.932;4.442;2023-05-15T08:41:59;57.23;;;32.93;;
22417;SDS011;11376;50.932;4.442;2023-05-15T08:44:44;60.60;;;35.10;;
22417;SDS011;11376;50.932;4.442;2023-05-15T08:47:10;55.37;;;32.63;;
22417;SDS011;11376;50.932;4.442;2023-05-15T08:49:50;52.70;;;31.38;;
22417;SDS011;11376;50.932;4.442;2023-05-15T08:52:31;52.28;;;32.13;;
22417;SDS011;11376;50.932;4.442;2023-05-15T08:54:57;55.50;;;32.90;;
22417;SDS011;11376;50.932;4.442;2023-05-15T08:57:24;54.10;;;31.97;;
22417;SDS011;11376;50.932;4.442;2023-05-15T08:59:50;52.47;;;32.10;;
22417;SDS011;11376;50.932;4.442;2023-05-15T09:02:18;50.33;;;30.80;;
22417;SDS011;11376;50.932;4.442;2023-05-15T09:04:44;51.80;;;31.67;;
22417;SDS011;11376;50.932;4.442;2023-05-15T09:07:10;57.70;;;34.20;;
22417;SDS011;11376;50.932;4.442;2023-05-15T09:09:36;56.85;;;34.75;;
22417;SDS011;11376;50.932;4.442;2023-05-15T09:12:04;56.10;;;33.30;;
22417;SDS011;11376;50.932;4.442;2023-05-15T09:14:35;53.40;;;32.90;;
22417;SDS011;11376;50.932;4.442;2023-05-15T09:17:00;59.20;;;32.43;;
22417;SDS011;11376;50.932;4.442;2023-05-15T09:19:26;50.57;;;31.77;;
22417;SDS011;11376;50.932;4.442;2023-05-15T09:21:52;51.87;;;31.67;;
22417;SDS011;11376;50.932;4.442;2023-05-15T09:24:22;47.97;;;29.70;;
22417;SDS011;11376;50.932;4.442;2023-05-15T09:27:02;52.20;;;30.45;;
22417;SDS011;11376;50.932;4.442;2023-05-15T09:29:29;44.58;;;26.65;;
22417;SDS011;11376;50.932;4.442;2023-05-15T09:31:56;42.75;;;25.92;;
22417;SDS011;11376;50.932;4.442;2023-05-15T09:34:27;45.90;;;28.27;;
22417;SDS011;11376;50.932;4.442;2023-05-15T09:36:59;46.55;;;29.20;;
22417;SDS011;11376;50.932;4.442;2023-05-15T09:39:26;46.33;;;29.55;;
22417;SDS011;11376;50.932;4.442;2023-05-15T09:41:52;48.97;;;30.33;;
22417;SDS011;11376;50.932;4.442;2023-05-15T09:44:25;45.20;;;28.65;;
22417;SDS011;11376;50.932;4.442;2023-05-15T09:46:51;43.38;;;25.38;;
22417;SDS011;11376;50.932;4.442;2023-05-15T09:49:20;45.47;;;30.95;;
22417;SDS011;11376;50.932;4.442;2023-05-15T09:51:46;46.97;;;29.70;;
22417;SDS011;11376;50.932;4.442;2023-05-15T09:54:14;48.22;;;29.63;;
22417;SDS011;11376;50.932;4.442;2023-05-15T09:56:43;48.05;;;29.77;;
22417;SDS011;11376;50.932;4.442;2023-05-15T09:59:18;42.03;;;25.15;;
22417;SDS011;11376;50.932;4.442;2023-05-15T10:01:48;45.72;;;27.10;;
22417;SDS011;11376;50.932;4.442;2023-05-15T10:04:15;42.13;;;25.67;;
22417;SDS011;11376;50.932;4.442;2023-05-15T10:06:42;43.08;;;27.55;;
22417;SDS011;11376;50.932;4.442;2023-05-15T10:09:12;46.78;;;28.08;;
22417;SDS011;11376;50.932;4.442;2023-05-15T10:11:42;45.50;;;27.67;;
22417;SDS011;11376;50.932;4.442;2023-05-15T10:14:15;48.53;;;30.55;;
22417;SDS011;11376;50.932;4.442;2023-05-15T10:16:42;48.80;;;29.77;;
22417;SDS011;11376;50.932;4.442;2023-05-15T10:19:09;54.33;;;32.10;;
22417;SDS011;11376;50.932;4.442;2023-05-15T10:21:37;47.25;;;28.15;;
22417;SDS011;11376;50.932;4.442;2023-05-15T10:24:05;45.50;;;26.98;;
22417;SDS011;11376;50.932;4.442;2023-05-15T10:26:35;49.47;;;29.77;;
22417;SDS011;11376;50.932;4.442;2023-05-15T10:29:07;47.28;;;28.88;;
22417;SDS011;11376;50.932;4.442;2023-05-15T10:31:34;54.00;;;30.05;;
22417;SDS011;11376;50.932;4.442;2023-05-15T10:34:01;52.33;;;29.70;;
22417;SDS011;11376;50.932;4.442;2023-05-15T10:36:28;51.17;;;28.65;;
22417;SDS011;11376;50.932;4.442;2023-05-15T10:39:04;50.25;;;25.13;;
22417;SDS011;11376;50.932;4.442;2023-05-15T10:41:32;44.72;;;25.58;;
22417;SDS011;11376;50.932;4.442;2023-05-15T10:44:01;45.95;;;26.95;;
22417;SDS011;11376;50.932;4.442;2023-05-15T10:46:27;43.00;;;22.90;;
22417;SDS011;11376;50.932;4.442;2023-05-15T10:48:55;45.78;;;26.52;;
22417;SDS011;11376;50.932;4.442;2023-05-15T10:51:28;57.58;;;31.45;;
22417;SDS011;11376;50.932;4.442;2023-05-15T10:53:56;52.38;;;27.50;;
22417;SDS011;11376;50.932;4.442;2023-05-15T10:56:26;51.40;;;29.05;;
22417;SDS011;11376;50.932;4.442;2023-05-15T10:58:54;53.75;;;30.30;;
22417;SDS011;11376;50.932;4.442;2023-05-15T11:01:27;57.72;;;31.60;;
22417;SDS011;11376;50.932;4.442;2023-05-15T11:04:03;57.95;;;29.45;;
22417;SDS011;11376;50.932;4.442;2023-05-15T11:06:33;57.55;;;31.27;;
22417;SDS011;11376;50.932;4.442;2023-05-15T11:14:20;64.97;;;33.72;;
22417;SDS011;11376;50.932;4.442;2023-05-15T11:19:22;85.18;;;42.60;;
22417;SDS011;11376;50.932;4.442;2023-05-15T11:22:03;96.85;;;43.95;;
22417;SDS011;11376;50.932;4.442;2023-05-15T11:27:43;101.72;;;44.72;;
22417;SDS011;11376;50.932;4.442;2023-05-15T11:37:42;108.35;;;49.15;;
22417;SDS011;11376;50.932;4.442;2023-05-15T11:40:13;112.00;;;49.80;;
22417;SDS011;11376;50.932;4.442;2023-05-15T11:42:56;111.78;;;49.88;;
22417;SDS011;11376;50.932;4.442;2023-05-15T11:45:36;106.05;;;49.15;;
22417;SDS011;11376;50.932;4.442;2023-05-15T11:48:05;105.68;;;46.47;;
22417;SDS011;11376;50.932;4.442;2023-05-15T11:50:32;102.38;;;43.92;;
22417;SDS011;11376;50.932;4.442;2023-05-15T11:53:05;119.47;;;54.85;;
22417;SDS011;11376;50.932;4.442;2023-05-15T11:55:34;122.10;;;50.38;;
22417;SDS011;11376;50.932;4.442;2023-05-15T11:58:01;118.88;;;50.85;;
22417;SDS011;11376;50.932;4.442;2023-05-15T12:00:28;125.63;;;52.35;;
22417;SDS011;11376;50.932;4.442;2023-05-15T12:02:54;114.28;;;49.42;;
22417;SDS011;11376;50.932;4.442;2023-05-15T12:05:20;106.00;;;49.40;;
22417;SDS011;11376;50.932;4.442;2023-05-15T12:07:46;99.97;;;50.87;;
22417;SDS011;11376;50.932;4.442;2023-05-15T12:10:12;91.63;;;39.20;;
22417;SDS011;11376;50.932;4.442;2023-05-15T12:12:39;114.77;;;51.27;;
22417;SDS011;11376;50.932;4.442;2023-05-15T12:15:12;104.83;;;45.00;;
22417;SDS011;11376;50.932;4.442;2023-05-15T12:17:38;116.67;;;48.57;;
22417;SDS011;11376;50.932;4.442;2023-05-15T12:20:06;112.97;;;50.77;;
22417;SDS011;11376;50.932;4.442;2023-05-15T12:22:39;99.37;;;43.73;;
22417;SDS011;11376;50.932;4.442;2023-05-15T12:25:08;105.67;;;43.53;;
22417;SDS011;11376;50.932;4.442;2023-05-15T12:27:36;105.60;;;45.53;;
22417;SDS011;11376;50.932;4.442;2023-05-15T12:30:05;97.77;;;44.07;;
22417;SDS011;11376;50.932;4.442;2023-05-15T12:32:33;91.53;;;41.90;;
22417;SDS011;11376;50.932;4.442;2023-05-15T12:35:00;95.27;;;42.20;;
22417;SDS011;11376;50.932;4.442;2023-05-15T12:37:26;97.50;;;41.57;;
22417;SDS011;11376;50.932;4.442;2023-05-15T12:39:56;103.30;;;52.20;;
22417;SDS011;11376;50.932;4.442;2023-05-15T12:42:25;107.20;;;48.90;;
22417;SDS011;11376;50.932;4.442;2023-05-15T12:44:54;85.17;;;37.23;;
22417;SDS011;11376;50.932;4.442;2023-05-15T12:47:21;79.23;;;35.87;;
22417;SDS011;11376;50.932;4.442;2023-05-15T12:49:48;75.67;;;33.80;;
22417;SDS011;11376;50.932;4.442;2023-05-15T12:52:14;71.60;;;33.40;;
22417;SDS011;11376;50.932;4.442;2023-05-15T12:54:42;63.63;;;30.60;;
22417;SDS011;11376;50.932;4.442;2023-05-15T12:57:08;66.37;;;29.17;;
22417;SDS011;11376;50.932;4.442;2023-05-15T12:59:35;73.13;;;31.93;;
22417;SDS011;11376;50.932;4.442;2023-05-15T13:02:02;71.00;;;31.10;;
22417;SDS011;11376;50.932;4.442;2023-05-15T13:04:31;65.07;;;29.60;;
22417;SDS011;11376;50.932;4.442;2023-05-15T13:06:57;58.30;;;28.00;;
22417;SDS011;11376;50.932;4.442;2023-05-15T13:09:23;57.63;;;25.33;;
22417;SDS011;11376;50.932;4.442;2023-05-15T13:11:53;41.90;;;20.53;;
22417;SDS011;11376;50.932;4.442;2023-05-15T13:14:20;36.57;;;19.20;;
22417;SDS011;11376;50.932;4.442;2023-05-15T13:16:46;34.70;;;17.17;;
22417;SDS011;11376;50.932;4.442;2023-05-15T13:19:12;20.63;;;10.00;;
22417;SDS011;11376;50.932;4.442;2023-05-15T13:21:38;15.70;;;7.77;;
22417;SDS011;11376;50.932;4.442;2023-05-15T13:24:04;10.17;;;5.03;;
22417;SDS011;11376;50.932;4.442;2023-05-15T13:26:30;8.47;;;3.57;;
22417;SDS011;11376;50.932;4.442;2023-05-15T13:28:56;6.80;;;2.90;;
22417;SDS011;11376;50.932;4.442;2023-05-15T13:31:22;5.97;;;2.23;;
22417;SDS011;11376;50.932;4.442;2023-05-15T13:33:48;6.87;;;2.47;;
22417;SDS011;11376;50.932;4.442;2023-05-15T13:36:14;9.80;;;2.00;;
22417;SDS011;11376;50.932;4.442;2023-05-15T13:38:39;10.63;;;2.07;;
22417;SDS011;11376;50.932;4.442;2023-05-15T13:41:05;5.67;;;1.70;;
22417;SDS011;11376;50.932;4.442;2023-05-15T13:43:31;3.97;;;1.80;;
22417;SDS011;11376;50.932;4.442;2023-05-15T13:45:56;5.33;;;1.87;;
22417;SDS011;11376;50.932;4.442;2023-05-15T13:48:23;5.37;;;1.80;;
22417;SDS011;11376;50.932;4.442;2023-05-15T13:50:48;5.23;;;1.40;;
22417;SDS011;11376;50.932;4.442;2023-05-15T13:53:15;4.63;;;1.50;;
22417;SDS011;11376;50.932;4.442;2023-05-15T13:55:44;4.30;;;1.60;;
22417;SDS011;11376;50.932;4.442;2023-05-15T13:58:13;5.10;;;1.70;;
22417;SDS011;11376;50.932;4.442;2023-05-15T14:00:40;6.90;;;1.93;;
22417;SDS011;11376;50.932;4.442;2023-05-15T14:03:07;6.07;;;2.00;;
22417;SDS011;11376;50.932;4.442;2023-05-15T14:05:32;7.93;;;1.90;;
22417;SDS011;11376;50.932;4.442;2023-05-15T14:07:59;9.60;;;2.33;;
22417;SDS011;11376;50.932;4.442;2023-05-15T14:10:25;9.83;;;2.37;;
22417;SDS011;11376;50.932;4.442;2023-05-15T14:12:51;7.83;;;2.07;;
22417;SDS011;11376;50.932;4.442;2023-05-15T14:15:17;7.77;;;2.23;;
22417;SDS011;11376;50.932;4.442;2023-05-15T14:17:43;8.70;;;2.40;;
22417;SDS011;11376;50.932;4.442;2023-05-15T14:20:10;11.80;;;2.70;;
22417;SDS011;11376;50.932;4.442;2023-05-15T14:22:36;11.03;;;3.00;;
22417;SDS011;11376;50.932;4.442;2023-05-15T14:25:03;10.60;;;2.43;;
22417;SDS011;11376;50.932;4.442;2023-05-15T14:27:29;8.17;;;2.53;;
22417;SDS011;11376;50.932;4.442;2023-05-15T14:29:55;10.10;;;3.03;;
22417;SDS011;11376;50.932;4.442;2023-05-15T14:32:21;12.47;;;3.40;;
22417;SDS011;11376;50.932;4.442;2023-05-15T14:34:48;12.07;;;2.90;;
22417;SDS011;11376;50.932;4.442;2023-05-15T14:37:13;12.17;;;3.00;;
22417;SDS011;11376;50.932;4.442;2023-05-15T14:39:39;11.20;;;2.67;;
22417;SDS011;11376;50.932;4.442;2023-05-15T14:42:05;9.80;;;2.97;;
22417;SDS011;11376;50.932;4.442;2023-05-15T14:44:32;11.00;;;3.13;;
22417;SDS011;11376;50.932;4.442;2023-05-15T14:47:08;10.27;;;3.30;;
22417;SDS011;11376;50.932;4.442;2023-05-15T14:49:36;13.90;;;3.20;;
22417;SDS011;11376;50.932;4.442;2023-05-15T14:52:03;13.97;;;3.73;;
22417;SDS011;11376;50.932;4.442;2023-05-15T14:54:30;11.50;;;3.50;;